createdAt,value
2019-05-11T00:00:55.355Z,10.04
2019-05-11T00:03:44.800Z,10.00
2019-05-11T00:06:33.398Z,9.97
2019-05-11T00:09:22.631Z,9.94
2019-05-11T00:12:11.461Z,9.91
2019-05-11T00:15:00.880Z,9.88
2019-05-11T00:17:51.016Z,9.85
2019-05-11T00:20:40.689Z,9.81
2019-05-11T00:23:29.949Z,9.79
2019-05-11T00:26:19.383Z,9.76
2019-05-11T00:29:09.035Z,9.72
2019-05-11T00:31:58.434Z,9.69
2019-05-11T00:34:47.842Z,9.66
2019-05-11T00:37:36.966Z,9.63
2019-05-11T00:40:26.499Z,9.61
2019-05-11T00:43:16.074Z,9.57
2019-05-11T00:46:05.223Z,9.54
2019-05-11T00:48:54.609Z,9.52
2019-05-11T00:51:43.079Z,9.47
2019-05-11T00:54:32.513Z,9.46
2019-05-11T00:57:21.600Z,9.43
2019-05-11T01:00:10.571Z,9.41
2019-05-11T01:02:59.805Z,9.37
2019-05-11T01:05:48.962Z,9.36
2019-05-11T01:08:38.929Z,9.32
2019-05-11T01:11:27.706Z,9.29
2019-05-11T01:14:16.604Z,9.26
2019-05-11T01:17:06.055Z,9.24
2019-05-11T01:19:55.635Z,9.20
2019-05-11T01:22:44.831Z,9.17
2019-05-11T01:25:33.732Z,9.14
2019-05-11T01:28:23.259Z,9.11
2019-05-11T01:31:13.832Z,9.09
2019-05-11T01:34:03.190Z,9.06
2019-05-11T01:36:52.391Z,9.03
2019-05-11T01:39:41.908Z,9.02
2019-05-11T01:42:30.425Z,8.98
2019-05-11T01:45:20.576Z,8.97
2019-05-11T01:48:10.446Z,8.94
2019-05-11T01:50:59.858Z,8.92
2019-05-11T01:53:48.811Z,8.89
2019-05-11T01:56:38.149Z,8.86
2019-05-11T01:59:27.448Z,8.83
2019-05-11T02:02:16.305Z,8.81
2019-05-11T02:05:23.031Z,8.78
2019-05-11T02:08:11.727Z,8.76
2019-05-11T02:11:14.819Z,8.74
2019-05-11T02:13:50.901Z,8.70
2019-05-11T02:16:39.761Z,8.68
2019-05-11T02:19:29.367Z,8.64
2019-05-11T02:22:18.732Z,8.63
2019-05-11T02:25:08.440Z,8.59
2019-05-11T02:27:57.801Z,8.57
2019-05-11T02:30:47.652Z,8.56
2019-05-11T02:33:36.836Z,8.52
2019-05-11T02:36:25.637Z,8.50
2019-05-11T02:39:14.926Z,8.49
2019-05-11T02:42:03.751Z,8.45
2019-05-11T02:44:53.135Z,8.45
2019-05-11T02:47:42.805Z,8.41
2019-05-11T02:50:32.135Z,8.38
2019-05-11T02:53:21.397Z,8.36
2019-05-11T02:56:10.717Z,8.33
2019-05-11T02:59:00.264Z,8.32
2019-05-11T03:01:49.464Z,8.28
2019-05-11T03:04:38.955Z,8.25
2019-05-11T03:07:27.818Z,8.25
2019-05-11T03:10:17.039Z,8.22
2019-05-11T03:13:06.398Z,8.19
2019-05-11T03:15:56.133Z,8.16
2019-05-11T03:18:45.831Z,8.13
2019-05-11T03:21:35.209Z,8.10
2019-05-11T03:24:24.200Z,8.09
2019-05-11T03:27:13.336Z,8.04
2019-05-11T03:30:02.619Z,8.05
2019-05-11T03:32:51.894Z,8.00
2019-05-11T03:35:42.482Z,7.96
2019-05-11T03:38:32.103Z,7.95
2019-05-11T03:41:21.563Z,7.93
2019-05-11T03:44:10.861Z,7.91
2019-05-11T03:46:59.935Z,7.89
2019-05-11T03:49:49.387Z,7.85
2019-05-11T03:52:39.002Z,7.83
2019-05-11T03:55:28.256Z,7.82
2019-05-11T03:58:17.344Z,7.80
2019-05-11T04:01:06.232Z,7.77
2019-05-11T04:03:55.901Z,7.75
2019-05-11T04:06:45.658Z,7.75
2019-05-11T04:09:34.624Z,7.72
2019-05-11T04:12:34.309Z,7.70
2019-05-11T04:15:15.108Z,7.69
2019-05-11T04:18:05.320Z,7.67
2019-05-11T04:20:54.792Z,7.67
2019-05-11T04:23:44.002Z,7.65
2019-05-11T04:26:33.016Z,7.66
2019-05-11T04:29:21.609Z,7.65
2019-05-11T04:32:10.119Z,7.65
2019-05-11T04:35:00.622Z,7.64
2019-05-11T04:37:50.037Z,7.66
2019-05-11T04:40:39.388Z,7.67
2019-05-11T04:43:29.116Z,7.67
2019-05-11T04:46:17.927Z,7.68
2019-05-11T04:49:07.245Z,7.69
2019-05-11T04:51:56.262Z,7.67
2019-05-11T04:54:45.645Z,7.67
2019-05-11T04:57:35.064Z,7.69
2019-05-11T05:00:25.729Z,7.70
2019-05-11T05:03:14.875Z,7.71
2019-05-11T05:06:22.286Z,7.73
2019-05-11T05:08:58.078Z,7.72
2019-05-11T05:11:46.109Z,7.75
2019-05-11T05:14:34.619Z,7.77
2019-05-11T05:17:23.578Z,7.79
2019-05-11T05:20:12.184Z,7.83
2019-05-11T05:23:00.950Z,7.85
2019-05-11T05:25:52.676Z,7.86
2019-05-11T05:28:45.575Z,7.88
2019-05-11T05:31:34.407Z,7.94
2019-05-11T05:34:24.779Z,7.98
2019-05-11T05:37:14.280Z,8.03
2019-05-11T05:40:03.695Z,8.10
2019-05-11T05:42:53.122Z,8.16
2019-05-11T05:45:44.287Z,8.23
2019-05-11T05:48:33.781Z,8.29
2019-05-11T05:51:23.508Z,8.37
2019-05-11T05:54:13.223Z,8.44
2019-05-11T05:57:02.522Z,8.52
2019-05-11T05:59:52.769Z,8.60
2019-05-11T06:02:42.749Z,8.68
2019-05-11T06:05:32.342Z,8.79
2019-05-11T06:08:23.241Z,8.88
2019-05-11T06:11:12.192Z,8.96
2019-05-11T06:14:01.567Z,9.05
2019-05-11T06:16:50.977Z,9.13
2019-05-11T06:19:40.472Z,9.23
2019-05-11T06:22:29.736Z,9.31
2019-05-11T06:25:19.009Z,9.40
2019-05-11T06:28:08.460Z,9.48
2019-05-11T06:30:58.403Z,9.60
2019-05-11T06:33:48.917Z,9.70
2019-05-11T06:36:37.743Z,9.82
2019-05-11T06:39:27.260Z,9.92
2019-05-11T06:42:18.196Z,10.03
2019-05-11T06:45:09.791Z,10.15
2019-05-11T06:47:59.107Z,10.25
2019-05-11T06:50:47.997Z,10.35
2019-05-11T06:53:37.203Z,10.46
2019-05-11T06:56:26.370Z,10.57
2019-05-11T06:59:15.016Z,10.65
2019-05-11T07:02:05.010Z,10.76
2019-05-11T07:04:54.233Z,10.83
2019-05-11T07:07:47.497Z,10.92
2019-05-11T07:10:34.210Z,11.00
2019-05-11T07:13:24.302Z,11.07
2019-05-11T07:16:13.610Z,11.16
2019-05-11T07:19:02.254Z,11.26
2019-05-11T07:21:51.394Z,11.37
2019-05-11T07:24:40.796Z,11.50
2019-05-11T07:27:29.879Z,11.63
2019-05-11T07:30:19.951Z,11.76
2019-05-11T07:33:09.382Z,11.91
2019-05-11T07:35:58.464Z,12.06
2019-05-11T07:38:48.720Z,12.21
2019-05-11T07:41:38.872Z,12.40
2019-05-11T07:44:37.876Z,12.56
2019-05-11T07:47:18.882Z,12.71
2019-05-11T07:50:08.687Z,12.84
2019-05-11T07:52:58.862Z,12.96
2019-05-11T07:55:48.692Z,13.09
2019-05-11T07:58:38.756Z,13.22
2019-05-11T08:01:28.435Z,13.35
2019-05-11T08:04:18.447Z,13.48
2019-05-11T08:07:07.811Z,13.58
2019-05-11T08:09:58.545Z,13.70
2019-05-11T08:12:48.065Z,13.80
2019-05-11T08:15:38.232Z,13.95
2019-05-11T08:18:28.217Z,14.07
2019-05-11T08:21:18.123Z,14.20
2019-05-11T08:24:09.141Z,14.32
2019-05-11T08:26:58.480Z,14.44
2019-05-11T08:29:48.759Z,14.56
2019-05-11T08:32:38.747Z,14.72
2019-05-11T08:35:31.030Z,14.91
2019-05-11T08:38:19.089Z,15.11
2019-05-11T08:41:08.893Z,15.35
2019-05-11T08:43:58.863Z,15.53
2019-05-11T08:46:49.054Z,15.69
2019-05-11T08:49:38.264Z,15.85
2019-05-11T08:52:28.040Z,15.95
2019-05-11T08:55:19.003Z,16.03
2019-05-11T08:58:08.921Z,16.14
2019-05-11T09:00:58.447Z,16.26
2019-05-11T09:03:48.322Z,16.39
2019-05-11T09:06:37.835Z,16.51
2019-05-11T09:09:28.728Z,16.58
2019-05-11T09:12:18.425Z,16.67
2019-05-11T09:15:08.973Z,16.81
2019-05-11T09:17:58.893Z,16.99
2019-05-11T09:20:48.733Z,17.08
2019-05-11T09:23:40.840Z,17.17
2019-05-11T09:26:29.635Z,17.21
2019-05-11T09:29:18.734Z,17.36
2019-05-11T09:32:08.967Z,17.52
2019-05-11T09:34:58.644Z,17.69
2019-05-11T09:37:48.680Z,17.91
2019-05-11T09:40:38.574Z,18.13
2019-05-11T09:43:28.463Z,18.36
2019-05-11T09:46:18.920Z,18.48
2019-05-11T09:49:08.204Z,18.70
2019-05-11T09:51:58.890Z,18.84
2019-05-11T09:54:48.835Z,19.01
2019-05-11T09:57:38.427Z,19.21
2019-05-11T10:00:28.274Z,19.39
2019-05-11T10:03:18.776Z,19.49
2019-05-11T10:06:08.643Z,19.62
2019-05-11T10:08:57.955Z,19.80
2019-05-11T10:11:47.972Z,19.95
2019-05-11T10:14:38.365Z,20.10
2019-05-11T10:17:28.802Z,20.30
2019-05-11T10:20:18.409Z,20.42
2019-05-11T10:23:08.429Z,20.51
2019-05-11T10:25:58.612Z,20.62
2019-05-11T10:28:48.780Z,20.78
2019-05-11T10:31:38.749Z,20.89
2019-05-11T10:34:28.749Z,21.01
2019-05-11T10:37:18.386Z,21.15
2019-05-11T10:40:09.568Z,21.25
2019-05-11T10:42:59.320Z,21.41
2019-05-11T10:45:48.552Z,21.53
2019-05-11T10:48:38.887Z,21.64
2019-05-11T10:51:28.947Z,21.76
2019-05-11T10:54:18.709Z,21.84
2019-05-11T10:57:08.472Z,21.97
2019-05-11T10:59:58.102Z,22.05
2019-05-11T11:02:47.933Z,22.11
2019-05-11T11:05:38.466Z,22.19
2019-05-11T11:08:28.179Z,22.29
2019-05-11T11:11:18.482Z,22.36
2019-05-11T11:14:08.712Z,22.42
2019-05-11T11:16:58.481Z,22.50
2019-05-11T11:19:48.611Z,22.55
2019-05-11T11:22:43.431Z,22.67
2019-05-11T11:25:29.155Z,22.79
2019-05-11T11:28:17.889Z,22.85
2019-05-11T11:31:07.782Z,22.90
2019-05-11T11:33:58.481Z,22.95
2019-05-11T11:36:48.546Z,23.05
2019-05-11T11:39:38.834Z,23.15
2019-05-11T11:42:28.492Z,23.24
2019-05-11T11:45:18.393Z,23.31
2019-05-11T11:48:08.795Z,23.40
2019-05-11T11:50:58.602Z,23.47
2019-05-11T11:53:48.225Z,23.52
2019-05-11T11:56:38.163Z,23.56
2019-05-11T11:59:28.690Z,23.64
2019-05-11T12:02:19.058Z,23.67
2019-05-11T12:05:08.954Z,23.70
2019-05-11T12:07:58.660Z,23.75
2019-05-11T12:10:48.523Z,23.82
2019-05-11T12:13:38.360Z,23.88
2019-05-11T12:16:28.291Z,23.94
2019-05-11T12:19:18.741Z,23.94
2019-05-11T12:22:08.630Z,24.04
2019-05-11T12:24:59.063Z,24.06
2019-05-11T12:27:49.055Z,24.14
2019-05-11T12:30:38.784Z,24.12
2019-05-11T12:33:28.026Z,24.20
2019-05-11T12:36:18.743Z,24.24
2019-05-11T12:39:08.894Z,24.25
2019-05-11T12:41:58.386Z,24.28
2019-05-11T12:44:48.264Z,24.29
2019-05-11T12:47:38.633Z,24.30
2019-05-11T12:50:28.647Z,24.35
2019-05-11T12:53:18.691Z,24.25
2019-05-11T12:56:08.550Z,24.21
2019-05-11T12:58:58.344Z,24.15
2019-05-11T13:01:48.621Z,24.18
2019-05-11T13:04:38.583Z,24.17
2019-05-11T13:07:28.406Z,24.16
2019-05-11T13:10:18.667Z,24.17
2019-05-11T13:13:08.860Z,24.17
2019-05-11T13:15:58.763Z,24.18
2019-05-11T13:18:48.774Z,24.21
2019-05-11T13:21:38.578Z,24.24
2019-05-11T13:24:28.513Z,24.25
2019-05-11T13:27:18.093Z,24.26
2019-05-11T13:30:08.101Z,24.29
2019-05-11T13:32:58.261Z,24.31
2019-05-11T13:35:48.231Z,24.34
2019-05-11T13:38:38.813Z,24.35
2019-05-11T13:41:28.167Z,24.34
2019-05-11T13:44:18.686Z,24.32
2019-05-11T13:47:08.631Z,24.32
2019-05-11T13:49:58.678Z,24.32
2019-05-11T13:52:47.960Z,24.29
2019-05-11T13:55:38.829Z,24.28
2019-05-11T13:58:27.778Z,24.28
2019-05-11T14:01:18.394Z,24.27
2019-05-11T14:04:08.529Z,24.25
2019-05-11T14:06:58.650Z,24.21
2019-05-11T14:09:48.595Z,24.14
2019-05-11T14:12:38.690Z,24.11
2019-05-11T14:15:28.674Z,24.10
2019-05-11T14:18:18.254Z,24.12
2019-05-11T14:21:08.132Z,24.05
2019-05-11T14:23:58.818Z,24.05
2019-05-11T14:26:48.958Z,24.05
2019-05-11T14:29:38.656Z,24.07
2019-05-11T14:32:28.604Z,24.06
2019-05-11T14:35:18.780Z,24.10
2019-05-11T14:38:08.656Z,24.17
2019-05-11T14:40:58.630Z,24.13
2019-05-11T14:43:48.988Z,24.09
2019-05-11T14:46:38.647Z,24.08
2019-05-11T14:49:28.046Z,24.11
2019-05-11T14:52:18.808Z,24.15
2019-05-11T14:55:08.184Z,24.19
2019-05-11T14:57:57.854Z,24.25
2019-05-11T15:00:48.719Z,24.29
2019-05-11T15:03:38.081Z,24.29
2019-05-11T15:06:27.915Z,24.23
2019-05-11T15:09:18.372Z,24.23
2019-05-11T15:12:08.646Z,24.31
2019-05-11T15:14:59.163Z,24.38
2019-05-11T15:17:49.538Z,24.38
2019-05-11T15:20:39.170Z,24.39
2019-05-11T15:23:28.599Z,24.39
2019-05-11T15:26:18.842Z,24.44
2019-05-11T15:29:08.401Z,24.37
2019-05-11T15:31:57.871Z,24.42
2019-05-11T15:34:48.807Z,24.47
2019-05-11T15:37:38.554Z,24.47
2019-05-11T15:40:28.010Z,24.45
2019-05-11T15:43:18.105Z,24.47
2019-05-11T15:46:07.283Z,24.48
2019-05-11T15:49:02.971Z,24.50
2019-05-11T15:51:48.871Z,24.45
2019-05-11T15:54:38.742Z,24.40
2019-05-11T15:57:28.912Z,24.44
2019-05-11T16:00:19.759Z,24.50
2019-05-11T16:03:08.732Z,24.54
2019-05-11T16:05:58.346Z,24.52
2019-05-11T16:08:47.755Z,24.52
2019-05-11T16:11:38.513Z,24.55
2019-05-11T16:14:28.224Z,24.55
2019-05-11T16:17:17.453Z,24.53
2019-05-11T16:20:08.804Z,24.52
2019-05-11T16:22:57.656Z,24.49
2019-05-11T16:25:48.883Z,24.51
2019-05-11T16:28:38.353Z,24.44
2019-05-11T16:31:28.542Z,24.40
2019-05-11T16:34:18.517Z,24.25
2019-05-11T16:37:10.200Z,24.23
2019-05-11T16:39:59.971Z,24.13
2019-05-11T16:42:49.596Z,24.09
2019-05-11T16:45:39.100Z,24.10
2019-05-11T16:48:28.148Z,24.06
2019-05-11T16:51:17.876Z,24.00
2019-05-11T16:54:07.643Z,22.01
2019-05-11T16:56:57.927Z,20.92
2019-05-11T16:59:48.355Z,21.85
2019-05-11T17:02:38.346Z,22.02
2019-05-11T17:05:33.263Z,22.01
2019-05-11T17:08:18.746Z,21.93
2019-05-11T17:11:08.523Z,21.84
2019-05-11T17:13:57.583Z,21.70
2019-05-11T17:16:48.183Z,21.51
2019-05-11T17:19:43.673Z,21.24
2019-05-11T17:22:28.721Z,21.06
2019-05-11T17:25:19.139Z,20.80
2019-05-11T17:28:10.065Z,20.62
2019-05-11T17:31:02.827Z,20.40
2019-05-11T17:33:50.540Z,20.24
2019-05-11T17:36:39.177Z,20.03
2019-05-11T17:39:28.289Z,19.86
2019-05-11T17:42:18.271Z,19.66
2019-05-11T17:45:08.925Z,19.47
2019-05-11T17:47:58.901Z,19.33
2019-05-11T17:50:48.302Z,19.15
2019-05-11T17:53:37.902Z,18.98
2019-05-11T17:56:27.989Z,18.83
2019-05-11T17:59:16.672Z,18.69
2019-05-11T18:02:06.137Z,18.51
2019-05-11T18:04:55.132Z,18.34
2019-05-11T18:07:44.568Z,18.23
2019-05-11T18:10:34.020Z,18.08
2019-05-11T18:13:23.636Z,17.97
2019-05-11T18:16:12.931Z,17.83
2019-05-11T18:19:01.645Z,17.71
2019-05-11T18:21:50.964Z,17.55
2019-05-11T18:24:40.295Z,17.45
2019-05-11T18:30:40.610Z,17.17
2019-05-11T18:33:31.029Z,17.02
2019-05-11T18:36:23.110Z,16.91
2019-05-11T18:39:12.521Z,16.82
2019-05-11T18:42:02.124Z,16.65
2019-05-11T18:44:51.549Z,16.53
2019-05-11T18:47:42.853Z,16.45
2019-05-11T18:50:33.935Z,16.35
2019-05-11T18:53:25.428Z,16.25
2019-05-11T18:56:15.423Z,16.15
2019-05-11T18:59:08.863Z,16.03
2019-05-11T19:02:01.330Z,15.94
2019-05-11T19:04:52.250Z,15.85
2019-05-11T19:07:45.037Z,15.74
2019-05-11T19:10:35.078Z,15.62
2019-05-11T19:13:28.156Z,15.51
2019-05-11T19:16:18.730Z,15.43
2019-05-11T19:19:08.506Z,15.31
2019-05-11T19:22:02.362Z,15.21
2019-05-11T19:24:53.130Z,15.12
2019-05-11T19:27:44.121Z,15.03
2019-05-11T19:30:34.449Z,14.91
2019-05-11T19:33:23.801Z,14.83
2019-05-11T19:36:14.699Z,14.74
2019-05-11T19:39:05.344Z,14.63
2019-05-11T19:41:55.319Z,14.57
2019-05-11T19:44:47.850Z,14.48
2019-05-11T19:47:37.864Z,14.40
2019-05-11T19:50:28.477Z,14.34
2019-05-11T19:53:18.843Z,14.27
2019-05-11T19:56:09.084Z,14.18
2019-05-11T19:58:58.414Z,14.10
2019-05-11T20:01:52.978Z,14.05
2019-05-11T20:04:44.823Z,13.97
2019-05-11T20:07:34.397Z,13.88
2019-05-11T20:10:27.723Z,13.81
2019-05-11T20:13:18.342Z,13.75
2019-05-11T20:16:08.444Z,13.68
2019-05-11T20:18:59.918Z,13.60
2019-05-11T20:21:50.758Z,13.53
2019-05-11T20:24:40.288Z,13.45
2019-05-11T20:27:29.539Z,13.41
2019-05-11T20:30:19.627Z,13.35
2019-05-11T20:33:13.279Z,13.31
2019-05-11T20:36:03.661Z,13.24
2019-05-11T20:38:55.947Z,13.22
2019-05-11T20:41:47.983Z,13.18
2019-05-11T20:44:39.576Z,13.15
2019-05-11T20:47:29.347Z,13.12
2019-05-11T20:50:18.888Z,13.11
2019-05-11T20:53:11.296Z,13.08
2019-05-11T20:56:01.835Z,13.06
2019-05-11T20:58:55.533Z,13.04
2019-05-11T21:01:49.392Z,13.02
2019-05-11T21:04:40.309Z,13.00
2019-05-11T21:07:29.629Z,12.98
2019-05-11T21:10:24.441Z,12.97
2019-05-11T21:13:18.124Z,12.93
2019-05-11T21:16:08.776Z,12.91
2019-05-11T21:19:00.602Z,12.88
2019-05-11T21:21:53.909Z,12.85
2019-05-11T21:24:49.714Z,12.82
2019-05-11T21:27:42.645Z,12.81
2019-05-11T21:30:39.676Z,12.80
2019-05-11T21:33:30.651Z,12.75
2019-05-11T21:36:25.570Z,12.74
2019-05-11T21:39:19.491Z,12.71
2019-05-11T21:42:13.648Z,12.70
2019-05-11T21:45:04.136Z,12.68
2019-05-11T21:47:54.861Z,12.64
2019-05-11T21:50:49.162Z,12.59
2019-05-11T21:53:39.671Z,12.54
2019-05-11T21:56:30.705Z,12.52
2019-05-11T21:59:27.526Z,12.49
2019-05-11T22:02:25.082Z,12.47
2019-05-11T22:05:15.386Z,12.44
2019-05-11T22:08:22.471Z,12.41
2019-05-11T22:11:14.244Z,12.38
2019-05-11T22:14:09.135Z,12.34
2019-05-11T22:17:02.503Z,12.30
2019-05-11T22:19:51.847Z,12.26
2019-05-11T22:22:41.589Z,12.23
2019-05-11T22:25:31.946Z,12.17
2019-05-11T22:28:22.953Z,12.14
2019-05-11T22:31:18.291Z,12.08
2019-05-11T22:34:08.947Z,12.04
2019-05-11T22:37:05.267Z,11.99
2019-05-11T22:39:57.884Z,11.92
2019-05-11T22:42:48.524Z,11.88
2019-05-11T22:45:42.057Z,11.83
2019-05-11T22:48:32.681Z,11.79
2019-05-11T22:51:24.695Z,11.73
2019-05-11T22:54:20.650Z,11.67
2019-05-11T22:57:11.097Z,11.62
2019-05-11T23:00:02.643Z,11.56
2019-05-11T23:02:52.385Z,11.52
2019-05-11T23:05:47.682Z,11.47
2019-05-11T23:08:37.367Z,11.44
2019-05-11T23:11:49.805Z,11.38
2019-05-11T23:14:48.276Z,11.33
2019-05-11T23:17:38.609Z,11.28
2019-05-11T23:20:32.435Z,11.26
2019-05-11T23:23:30.881Z,11.21
2019-05-11T23:26:24.952Z,11.19
2019-05-11T23:29:18.479Z,11.16
2019-05-11T23:32:13.486Z,11.14
2019-05-11T23:35:08.152Z,11.13
2019-05-11T23:38:02.203Z,11.12
2019-05-11T23:40:52.321Z,11.12
2019-05-11T23:43:47.753Z,11.10
2019-05-11T23:46:41.638Z,11.10
2019-05-11T23:49:42.988Z,11.09
2019-05-11T23:52:34.819Z,11.09
2019-05-11T23:55:29.148Z,11.07
2019-05-11T23:58:19.616Z,11.06
